createdAt,value
2022-11-14T00:00:24.338Z,0.00
2022-11-14T00:01:24.312Z,0.00
2022-11-14T00:02:24.325Z,0.00
2022-11-14T00:03:24.285Z,0.00
2022-11-14T00:04:29.199Z,0.00
2022-11-14T00:05:24.300Z,0.00
2022-11-14T00:06:24.279Z,0.00
2022-11-14T00:07:24.299Z,0.00
2022-11-14T00:08:24.233Z,0.00
2022-11-14T00:09:24.247Z,0.00
2022-11-14T00:10:24.224Z,0.00
2022-11-14T00:11:24.201Z,0.00
2022-11-14T00:12:24.194Z,0.00
2022-11-14T00:13:24.156Z,0.00
2022-11-14T00:14:24.162Z,0.00
2022-11-14T00:15:24.203Z,0.00
2022-11-14T00:16:24.141Z,0.00
2022-11-14T00:17:24.120Z,0.00
2022-11-14T00:18:24.116Z,0.00
2022-11-14T00:19:24.090Z,0.00
2022-11-14T00:20:24.116Z,0.00
2022-11-14T00:21:24.067Z,0.00
2022-11-14T00:22:24.071Z,0.00
2022-11-14T00:23:24.044Z,0.00
2022-11-14T00:24:24.024Z,0.00
2022-11-14T00:25:24.025Z,0.00
2022-11-14T00:26:24.076Z,0.00
2022-11-14T00:27:24.001Z,0.00
2022-11-14T00:28:23.970Z,0.00
2022-11-14T00:29:23.954Z,0.00
2022-11-14T00:30:23.946Z,0.00
2022-11-14T00:31:23.970Z,0.00
2022-11-14T00:32:23.922Z,0.00
2022-11-14T00:33:23.911Z,0.00
2022-11-14T00:34:23.906Z,0.00
2022-11-14T00:35:23.884Z,0.00
2022-11-14T00:36:23.889Z,0.00
2022-11-14T00:37:23.891Z,0.00
2022-11-14T00:38:23.871Z,0.00
2022-11-14T00:39:23.824Z,0.00
2022-11-14T00:40:23.823Z,0.00
2022-11-14T00:41:23.787Z,0.00
2022-11-14T00:42:23.832Z,0.00
2022-11-14T00:43:23.791Z,0.00
2022-11-14T00:44:23.771Z,0.00
2022-11-14T00:45:23.742Z,0.00
2022-11-14T00:46:23.749Z,0.00
2022-11-14T00:47:23.749Z,0.00
2022-11-14T00:48:23.724Z,0.00
2022-11-14T00:49:23.691Z,0.00
2022-11-14T00:50:23.714Z,0.00
2022-11-14T00:51:23.669Z,0.00
2022-11-14T00:52:23.671Z,0.00
2022-11-14T00:53:23.678Z,0.00
2022-11-14T00:54:23.636Z,0.00
2022-11-14T00:55:23.614Z,0.00
2022-11-14T00:56:23.619Z,0.00
2022-11-14T00:57:23.594Z,0.00
2022-11-14T00:58:23.630Z,0.00
2022-11-14T00:59:23.568Z,0.00
2022-11-14T01:00:23.574Z,0.00
2022-11-14T01:01:23.640Z,0.00
2022-11-14T01:02:23.524Z,0.00
2022-11-14T01:03:23.553Z,0.00
2022-11-14T01:04:23.544Z,0.00
2022-11-14T01:05:23.514Z,0.00
2022-11-14T01:06:23.461Z,0.00
2022-11-14T01:07:23.463Z,0.00
2022-11-14T01:08:23.447Z,0.00
2022-11-14T01:09:23.520Z,0.00
2022-11-14T01:10:23.447Z,0.00
2022-11-14T01:11:23.423Z,0.00
2022-11-14T01:12:23.391Z,0.00
2022-11-14T01:13:23.395Z,0.00
2022-11-14T01:14:23.406Z,0.00
2022-11-14T01:15:23.368Z,0.00
2022-11-14T01:16:23.343Z,0.00
2022-11-14T01:17:23.344Z,0.00
2022-11-14T01:18:23.327Z,0.00
2022-11-14T01:19:23.312Z,0.00
2022-11-14T01:20:23.375Z,0.00
2022-11-14T01:21:23.291Z,0.00
2022-11-14T01:22:23.284Z,0.00
2022-11-14T01:23:23.259Z,0.00
2022-11-14T01:24:23.242Z,0.00
2022-11-14T01:25:23.286Z,0.00
2022-11-14T01:26:23.219Z,0.00
2022-11-14T01:27:23.199Z,0.00
2022-11-14T01:28:23.187Z,0.00
2022-11-14T01:29:23.186Z,0.00
2022-11-14T01:30:23.220Z,0.00
2022-11-14T01:31:23.178Z,0.00
2022-11-14T01:32:23.142Z,0.00
2022-11-14T01:33:23.138Z,0.00
2022-11-14T01:34:23.120Z,0.00
2022-11-14T01:35:23.101Z,0.00
2022-11-14T01:36:23.179Z,0.00
2022-11-14T01:37:23.089Z,0.00
2022-11-14T01:38:23.048Z,0.00
2022-11-14T01:39:23.056Z,0.00
2022-11-14T01:40:23.074Z,0.00
2022-11-14T01:41:23.047Z,0.00
2022-11-14T01:42:26.937Z,0.00
2022-11-14T01:43:22.988Z,0.00
2022-11-14T01:44:22.975Z,0.00
2022-11-14T01:45:22.968Z,0.00
2022-11-14T01:46:22.945Z,0.00
2022-11-14T01:47:22.976Z,0.00
2022-11-14T01:48:22.925Z,0.00
2022-11-14T01:49:22.929Z,0.00
2022-11-14T01:50:22.943Z,0.00
2022-11-14T01:51:22.895Z,0.00
2022-11-14T01:52:22.927Z,0.00
2022-11-14T01:53:22.897Z,0.00
2022-11-14T01:54:22.843Z,0.00
2022-11-14T01:55:22.848Z,0.00
2022-11-14T01:56:22.817Z,0.00
2022-11-14T01:57:22.819Z,0.00
2022-11-14T01:58:22.836Z,0.00
2022-11-14T01:59:22.787Z,0.00
2022-11-14T02:00:22.790Z,0.00
2022-11-14T02:01:22.825Z,0.00
2022-11-14T02:02:22.760Z,0.00
2022-11-14T02:03:22.736Z,0.00
2022-11-14T02:04:22.735Z,0.00
2022-11-14T02:05:22.729Z,0.00
2022-11-14T02:06:22.681Z,0.00
2022-11-14T02:07:22.750Z,0.00
2022-11-14T02:08:22.661Z,0.00
2022-11-14T02:09:22.699Z,0.00
2022-11-14T02:10:22.638Z,0.00
2022-11-14T02:11:22.655Z,0.00
2022-11-14T02:12:22.607Z,0.00
2022-11-14T02:13:22.615Z,0.00
2022-11-14T02:14:22.629Z,0.00
2022-11-14T02:15:22.582Z,0.00
2022-11-14T02:16:22.554Z,0.00
2022-11-14T02:17:31.046Z,0.00
2022-11-14T02:18:22.537Z,0.00
2022-11-14T02:19:22.534Z,0.00
2022-11-14T02:20:22.538Z,0.00
2022-11-14T02:21:22.511Z,0.00
2022-11-14T02:22:22.478Z,0.00
2022-11-14T02:23:22.477Z,0.00
2022-11-14T02:24:22.466Z,0.00
2022-11-14T02:25:22.500Z,0.00
2022-11-14T02:26:22.427Z,0.00
2022-11-14T02:27:22.432Z,0.00
2022-11-14T02:28:22.401Z,0.00
2022-11-14T02:29:22.398Z,0.00
2022-11-14T02:30:22.382Z,0.00
2022-11-14T02:31:22.398Z,0.00
2022-11-14T02:32:22.344Z,0.00
2022-11-14T02:33:22.362Z,0.00
2022-11-14T02:34:22.325Z,0.00
2022-11-14T02:35:22.328Z,0.00
2022-11-14T02:36:22.323Z,0.00
2022-11-14T02:37:22.321Z,0.00
2022-11-14T02:38:22.264Z,0.00
2022-11-14T02:39:22.278Z,0.00
2022-11-14T02:40:22.247Z,0.00
2022-11-14T02:41:22.317Z,0.00
2022-11-14T02:42:22.216Z,0.00
2022-11-14T02:43:22.220Z,0.00
2022-11-14T02:44:22.218Z,0.00
2022-11-14T02:45:22.195Z,0.00
2022-11-14T02:46:22.176Z,0.00
2022-11-14T02:47:22.234Z,0.00
2022-11-14T02:48:22.147Z,0.00
2022-11-14T02:49:22.133Z,0.00
2022-11-14T02:50:22.113Z,0.00
2022-11-14T02:51:22.115Z,0.00
2022-11-14T02:52:22.142Z,0.00
2022-11-14T02:53:22.193Z,0.00
2022-11-14T02:54:22.062Z,0.00
2022-11-14T02:55:22.066Z,0.00
2022-11-14T02:56:22.071Z,0.00
2022-11-14T02:57:22.052Z,0.00
2022-11-14T02:58:22.034Z,0.00
2022-11-14T02:59:22.010Z,0.00
2022-11-14T03:00:22.011Z,0.00
2022-11-14T03:01:22.150Z,0.00
2022-11-14T03:02:21.958Z,0.00
2022-11-14T03:03:21.991Z,0.00
2022-11-14T03:04:21.940Z,0.00
2022-11-14T03:05:21.963Z,0.00
2022-11-14T03:06:21.939Z,0.00
2022-11-14T03:07:22.116Z,0.00
2022-11-14T03:08:21.909Z,0.00
2022-11-14T03:09:21.874Z,0.00
2022-11-14T03:10:21.850Z,0.00
2022-11-14T03:11:21.854Z,0.00
2022-11-14T03:12:21.841Z,0.00
2022-11-14T03:13:21.833Z,0.00
2022-11-14T03:14:21.822Z,0.00
2022-11-14T03:15:21.802Z,0.00
2022-11-14T03:16:21.798Z,0.00
2022-11-14T03:17:21.774Z,0.00
2022-11-14T03:18:21.751Z,0.00
2022-11-14T03:19:21.810Z,0.00
2022-11-14T03:20:21.722Z,0.00
2022-11-14T03:21:21.719Z,0.00
2022-11-14T03:22:21.726Z,0.00
2022-11-14T03:23:21.696Z,0.00
2022-11-14T03:24:21.668Z,0.00
2022-11-14T03:25:21.700Z,0.00
2022-11-14T03:26:21.653Z,0.00
2022-11-14T03:27:21.644Z,0.00
2022-11-14T03:28:21.615Z,0.00
2022-11-14T03:29:21.626Z,0.00
2022-11-14T03:30:21.635Z,0.00
2022-11-14T03:31:21.592Z,0.00
2022-11-14T03:32:21.582Z,0.00
2022-11-14T03:33:21.566Z,0.00
2022-11-14T03:34:21.568Z,0.00
2022-11-14T03:35:21.557Z,0.00
2022-11-14T03:36:21.568Z,0.00
2022-11-14T03:37:21.524Z,0.00
2022-11-14T03:38:21.522Z,0.00
2022-11-14T03:39:21.487Z,0.00
2022-11-14T03:40:21.465Z,0.00
2022-11-14T03:41:21.530Z,0.00
2022-11-14T03:42:21.430Z,0.00
2022-11-14T03:43:21.436Z,0.00
2022-11-14T03:44:21.424Z,0.00
2022-11-14T03:45:21.418Z,0.00
2022-11-14T03:46:21.394Z,0.00
2022-11-14T03:47:21.422Z,0.00
2022-11-14T03:48:21.356Z,0.00
2022-11-14T03:49:21.392Z,0.00
2022-11-14T03:50:21.345Z,0.00
2022-11-14T03:51:21.340Z,0.00
2022-11-14T03:52:21.354Z,0.00
2022-11-14T03:53:21.318Z,0.00
2022-11-14T03:54:21.309Z,0.00
2022-11-14T03:55:21.274Z,0.00
2022-11-14T03:56:21.264Z,0.00
2022-11-14T03:57:21.260Z,0.00
2022-11-14T03:58:21.265Z,0.00
2022-11-14T03:59:21.235Z,0.00
2022-11-14T04:00:21.215Z,0.00
2022-11-14T04:01:21.257Z,0.00
2022-11-14T04:02:21.182Z,0.00
2022-11-14T04:03:21.213Z,0.00
2022-11-14T04:04:21.151Z,0.00
2022-11-14T04:05:21.180Z,0.00
2022-11-14T04:06:21.130Z,0.00
2022-11-14T04:07:21.175Z,0.00
2022-11-14T04:08:21.118Z,0.00
2022-11-14T04:09:21.129Z,0.00
2022-11-14T04:10:21.086Z,0.00
2022-11-14T04:11:21.086Z,0.00
2022-11-14T04:12:21.048Z,0.00
2022-11-14T04:13:21.051Z,0.00
2022-11-14T04:14:21.083Z,0.00
2022-11-14T04:15:21.015Z,0.00
2022-11-14T04:16:20.996Z,0.00
2022-11-14T04:17:21.001Z,0.00
2022-11-14T04:18:20.976Z,0.00
2022-11-14T04:19:20.972Z,0.00
2022-11-14T04:20:21.069Z,0.00
2022-11-14T04:21:20.971Z,0.00
2022-11-14T04:22:20.924Z,0.00
2022-11-14T04:23:20.927Z,0.00
2022-11-14T04:24:20.907Z,0.00
2022-11-14T04:25:20.916Z,0.00
2022-11-14T04:26:20.867Z,0.00
2022-11-14T04:27:20.871Z,0.00
2022-11-14T04:28:20.851Z,0.00
2022-11-14T04:29:20.859Z,0.00
2022-11-14T04:30:20.812Z,0.00
2022-11-14T04:31:20.849Z,0.00
2022-11-14T04:32:20.791Z,0.00
2022-11-14T04:33:20.792Z,0.00
2022-11-14T04:34:20.759Z,0.00
2022-11-14T04:35:20.757Z,0.00
2022-11-14T04:36:20.790Z,0.00
2022-11-14T04:37:20.738Z,0.00
2022-11-14T04:38:20.721Z,0.00
2022-11-14T04:39:20.729Z,0.00
2022-11-14T04:40:20.682Z,0.00
2022-11-14T04:41:20.678Z,0.00
2022-11-14T04:42:20.710Z,0.00
2022-11-14T04:43:20.655Z,0.00
2022-11-14T04:44:20.628Z,0.00
2022-11-14T04:45:20.772Z,0.00
2022-11-14T04:46:20.605Z,0.00
2022-11-14T04:47:20.643Z,0.00
2022-11-14T04:48:20.598Z,0.00
2022-11-14T04:49:20.587Z,0.00
2022-11-14T04:50:20.547Z,0.00
2022-11-14T04:51:20.575Z,0.00
2022-11-14T04:52:20.530Z,0.00
2022-11-14T04:53:20.566Z,0.00
2022-11-14T04:54:20.503Z,0.00
2022-11-14T04:55:20.511Z,0.00
2022-11-14T04:56:20.481Z,0.00
2022-11-14T04:57:20.479Z,0.00
2022-11-14T04:58:20.510Z,0.00
2022-11-14T04:59:21.245Z,0.00
2022-11-14T05:00:20.421Z,0.00
2022-11-14T05:01:20.477Z,0.00
2022-11-14T05:02:20.401Z,0.00
2022-11-14T05:03:20.403Z,0.00
2022-11-14T05:04:20.389Z,0.00
2022-11-14T05:05:20.378Z,0.00
2022-11-14T05:06:20.353Z,0.00
2022-11-14T05:07:20.408Z,0.00
2022-11-14T05:08:20.313Z,0.00
2022-11-14T05:09:20.350Z,0.00
2022-11-14T05:10:20.307Z,0.00
2022-11-14T05:11:23.210Z,0.00
2022-11-14T05:12:20.280Z,0.00
2022-11-14T05:13:20.276Z,0.00
2022-11-14T05:14:20.240Z,0.00
2022-11-14T05:15:20.252Z,0.00
2022-11-14T05:16:20.232Z,0.00
2022-11-14T05:17:20.209Z,0.00
2022-11-14T05:18:20.196Z,0.00
2022-11-14T05:19:20.182Z,0.00
2022-11-14T05:20:20.207Z,0.00
2022-11-14T05:21:20.146Z,0.00
2022-11-14T05:22:20.155Z,0.00
2022-11-14T05:23:20.118Z,0.00
2022-11-14T05:24:20.122Z,0.00
2022-11-14T05:25:20.116Z,0.00
2022-11-14T05:26:20.125Z,0.00
2022-11-14T05:27:20.071Z,0.00
2022-11-14T05:28:20.079Z,0.00
2022-11-14T05:29:20.041Z,0.00
2022-11-14T05:30:20.060Z,0.00
2022-11-14T05:31:20.064Z,0.00
2022-11-14T05:32:20.014Z,0.00
2022-11-14T05:33:19.991Z,0.00
2022-11-14T05:34:20.003Z,0.00
2022-11-14T05:35:19.963Z,0.00
2022-11-14T05:36:19.973Z,0.00
2022-11-14T05:37:19.978Z,0.00
2022-11-14T05:38:19.939Z,0.00
2022-11-14T05:39:19.925Z,0.00
2022-11-14T05:40:19.931Z,0.00
2022-11-14T05:41:19.883Z,0.00
2022-11-14T05:42:19.913Z,0.00
2022-11-14T05:43:19.892Z,0.00
2022-11-14T05:44:19.864Z,0.00
2022-11-14T05:45:19.830Z,0.00
2022-11-14T05:46:19.852Z,0.00
2022-11-14T05:47:19.872Z,0.00
2022-11-14T05:48:19.816Z,0.00
2022-11-14T05:49:22.132Z,0.00
2022-11-14T05:50:19.819Z,0.00
2022-11-14T05:51:19.765Z,0.00
2022-11-14T05:52:19.784Z,0.00
2022-11-14T05:53:19.751Z,0.00
2022-11-14T05:54:19.743Z,0.00
2022-11-14T05:55:24.624Z,0.00
2022-11-14T05:56:19.718Z,0.00
2022-11-14T05:57:19.696Z,0.00
2022-11-14T05:58:19.731Z,0.00
2022-11-14T05:59:19.648Z,0.00
2022-11-14T06:00:19.745Z,0.00
2022-11-14T06:01:19.623Z,0.00
2022-11-14T06:02:19.701Z,0.00
2022-11-14T06:03:19.621Z,0.00
2022-11-14T06:04:19.636Z,0.00
2022-11-14T06:05:19.576Z,0.00
2022-11-14T06:06:19.576Z,0.00
2022-11-14T06:07:20.549Z,0.00
2022-11-14T06:08:19.559Z,0.00
2022-11-14T06:09:19.561Z,0.00
2022-11-14T06:10:19.526Z,0.00
2022-11-14T06:11:19.499Z,0.00
2022-11-14T06:12:19.514Z,0.00
2022-11-14T06:13:19.420Z,0.00
2022-11-14T06:14:19.467Z,0.00
2022-11-14T06:15:19.386Z,0.00
2022-11-14T06:16:19.397Z,0.00
2022-11-14T06:17:19.376Z,0.00
2022-11-14T06:18:19.360Z,0.00
2022-11-14T06:19:19.338Z,0.00
2022-11-14T06:20:19.398Z,0.00
2022-11-14T06:21:19.311Z,0.00
2022-11-14T06:22:19.312Z,0.00
2022-11-14T06:23:24.430Z,0.00
2022-11-14T06:24:19.297Z,0.00
2022-11-14T06:25:19.295Z,0.00
2022-11-14T06:26:19.278Z,0.00
2022-11-14T06:27:19.236Z,0.00
2022-11-14T06:28:19.234Z,0.00
2022-11-14T06:29:19.205Z,0.00
2022-11-14T06:30:19.211Z,0.00
2022-11-14T06:31:19.221Z,0.00
2022-11-14T06:32:19.176Z,0.00
2022-11-14T06:33:19.154Z,0.00
2022-11-14T06:34:19.159Z,0.00
2022-11-14T06:35:19.131Z,0.00
2022-11-14T06:36:19.188Z,0.00
2022-11-14T06:37:19.099Z,0.00
2022-11-14T06:38:19.104Z,0.00
2022-11-14T06:39:19.077Z,0.00
2022-11-14T06:40:19.126Z,0.00
2022-11-14T06:41:19.052Z,0.00
2022-11-14T06:42:19.087Z,0.00
2022-11-14T06:43:19.026Z,0.00
2022-11-14T06:44:19.115Z,0.00
2022-11-14T06:45:19.053Z,0.00
2022-11-14T06:46:18.998Z,0.00
2022-11-14T06:47:19.072Z,0.00
2022-11-14T06:48:19.046Z,0.00
2022-11-14T06:49:18.944Z,0.00
2022-11-14T06:50:18.955Z,0.00
2022-11-14T06:51:18.926Z,0.00
2022-11-14T06:52:18.950Z,0.00
2022-11-14T06:53:18.930Z,0.01
2022-11-14T06:54:18.897Z,0.01
2022-11-14T06:55:25.000Z,0.01
2022-11-14T06:56:18.883Z,0.01
2022-11-14T06:57:18.863Z,0.01
2022-11-14T06:58:18.841Z,0.01
2022-11-14T06:59:18.847Z,0.01
2022-11-14T07:00:18.834Z,0.01
2022-11-14T07:01:18.789Z,0.01
2022-11-14T07:02:21.912Z,0.01
2022-11-14T07:03:18.843Z,0.01
2022-11-14T07:04:18.823Z,0.01
2022-11-14T07:05:18.744Z,0.01
2022-11-14T07:06:18.738Z,0.01
2022-11-14T07:07:18.798Z,0.01
2022-11-14T07:08:30.032Z,0.01
2022-11-14T07:09:18.752Z,0.01
2022-11-14T07:10:18.755Z,0.01
2022-11-14T07:11:18.657Z,0.01
2022-11-14T07:12:18.683Z,0.01
2022-11-14T07:13:18.638Z,0.03
2022-11-14T07:14:18.635Z,0.03
2022-11-14T07:15:18.656Z,0.03
2022-11-14T07:16:18.628Z,0.03
2022-11-14T07:17:18.604Z,0.03
2022-11-14T07:18:18.579Z,0.03
2022-11-14T07:19:18.554Z,0.03
2022-11-14T07:20:18.595Z,0.04
2022-11-14T07:21:18.557Z,0.04
2022-11-14T07:22:18.536Z,0.04
2022-11-14T07:23:22.691Z,0.04
2022-11-14T07:24:18.505Z,0.04
2022-11-14T07:25:18.479Z,0.04
2022-11-14T07:26:18.523Z,0.04
2022-11-14T07:27:18.453Z,0.04
2022-11-14T07:28:18.460Z,0.05
2022-11-14T07:29:18.440Z,0.05
2022-11-14T07:30:18.436Z,0.04
2022-11-14T07:31:18.401Z,0.04
2022-11-14T07:32:18.428Z,0.04
2022-11-14T07:33:18.377Z,0.04
2022-11-14T07:34:18.369Z,0.05
2022-11-14T07:35:18.352Z,0.05
2022-11-14T07:36:18.364Z,0.05
2022-11-14T07:37:18.470Z,0.05
2022-11-14T07:38:18.323Z,0.05
2022-11-14T07:39:18.322Z,0.06
2022-11-14T07:40:18.327Z,0.06
2022-11-14T07:41:18.270Z,0.06
2022-11-14T07:42:18.277Z,0.06
2022-11-14T07:43:18.266Z,0.06
2022-11-14T07:44:18.247Z,0.05
2022-11-14T07:45:18.221Z,0.05
2022-11-14T07:46:18.212Z,0.06
2022-11-14T07:47:18.205Z,0.06
2022-11-14T07:48:18.222Z,0.08
2022-11-14T07:49:18.159Z,0.08
2022-11-14T07:50:20.511Z,0.06
2022-11-14T07:51:18.158Z,0.06
2022-11-14T07:52:18.147Z,0.06
2022-11-14T07:53:18.112Z,0.05
2022-11-14T07:54:18.142Z,0.05
2022-11-14T07:55:18.085Z,0.05
2022-11-14T07:56:18.082Z,0.05
2022-11-14T07:57:18.062Z,0.05
2022-11-14T07:58:18.069Z,0.05
2022-11-14T07:59:18.056Z,0.05
2022-11-14T08:00:18.028Z,0.06
2022-11-14T08:01:18.027Z,0.05
2022-11-14T08:02:18.009Z,0.05
2022-11-14T08:03:17.979Z,0.05
2022-11-14T08:04:18.038Z,0.05
2022-11-14T08:05:17.964Z,0.05
2022-11-14T08:06:17.957Z,0.05
2022-11-14T08:07:17.977Z,0.06
2022-11-14T08:08:17.940Z,0.06
2022-11-14T08:09:17.899Z,0.05
2022-11-14T08:10:17.928Z,0.05
2022-11-14T08:11:31.728Z,0.06
2022-11-14T08:12:17.889Z,0.06
2022-11-14T08:13:31.657Z,0.06
2022-11-14T08:14:17.853Z,0.06
2022-11-14T08:15:17.854Z,0.06
2022-11-14T08:16:17.844Z,0.06
2022-11-14T08:17:17.808Z,0.06
2022-11-14T08:18:17.802Z,0.06
2022-11-14T08:19:17.778Z,0.06
2022-11-14T08:20:17.834Z,0.06
2022-11-14T08:21:17.784Z,0.06
2022-11-14T08:22:17.740Z,0.06
2022-11-14T08:23:17.718Z,0.06
2022-11-14T08:24:17.724Z,0.06
2022-11-14T08:25:17.715Z,0.06
2022-11-14T08:26:17.722Z,0.06
2022-11-14T08:27:17.667Z,0.06
2022-11-14T08:28:17.677Z,0.06
2022-11-14T08:29:17.653Z,0.06
2022-11-14T08:30:17.751Z,0.06
2022-11-14T08:31:17.650Z,0.08
2022-11-14T08:32:17.653Z,0.08
2022-11-14T08:33:17.586Z,0.08
2022-11-14T08:34:17.621Z,0.08
2022-11-14T08:35:17.585Z,0.06
2022-11-14T08:36:17.591Z,0.08
2022-11-14T08:37:17.581Z,0.09
2022-11-14T08:38:17.550Z,0.09
2022-11-14T08:39:17.514Z,0.09
2022-11-14T08:40:17.510Z,0.08
2022-11-14T08:41:17.516Z,0.08
2022-11-14T08:42:17.492Z,0.08
2022-11-14T08:43:17.518Z,0.08
2022-11-14T08:44:17.564Z,0.09
2022-11-14T08:45:17.491Z,0.09
2022-11-14T08:46:17.536Z,0.09
2022-11-14T08:47:17.406Z,0.10
2022-11-14T08:48:17.449Z,0.10
2022-11-14T08:49:17.395Z,0.10
2022-11-14T08:50:17.390Z,0.10
2022-11-14T08:51:17.384Z,0.10
2022-11-14T08:52:17.380Z,0.10
2022-11-14T08:53:17.338Z,0.10
2022-11-14T08:54:17.364Z,0.09
2022-11-14T08:55:17.296Z,0.09
2022-11-14T08:56:17.326Z,0.09
2022-11-14T08:57:17.275Z,0.09
2022-11-14T08:58:17.282Z,0.08
2022-11-14T08:59:17.293Z,0.08
2022-11-14T09:00:17.261Z,0.08
2022-11-14T09:01:17.240Z,0.08
2022-11-14T09:02:17.232Z,0.09
2022-11-14T09:03:17.241Z,0.09
2022-11-14T09:04:17.285Z,0.10
2022-11-14T09:05:17.214Z,0.10
2022-11-14T09:06:17.179Z,0.10
2022-11-14T09:07:17.214Z,0.10
2022-11-14T09:08:17.137Z,0.10
2022-11-14T09:09:17.131Z,0.10
2022-11-14T09:10:17.156Z,0.10
2022-11-14T09:11:19.366Z,0.09
2022-11-14T09:12:17.101Z,0.11
2022-11-14T09:13:17.086Z,0.10
2022-11-14T09:14:17.068Z,0.11
2022-11-14T09:15:17.036Z,0.10
2022-11-14T09:16:17.071Z,0.10
2022-11-14T09:17:17.010Z,0.10
2022-11-14T09:18:17.010Z,0.10
2022-11-14T09:19:16.997Z,0.11
2022-11-14T09:20:16.987Z,0.10
2022-11-14T09:21:16.992Z,0.11
2022-11-14T09:22:16.967Z,0.11
2022-11-14T09:23:16.930Z,0.11
2022-11-14T09:24:16.934Z,0.11
2022-11-14T09:25:16.935Z,0.10
2022-11-14T09:26:16.905Z,0.10
2022-11-14T09:28:33.512Z,0.11
2022-11-14T09:29:34.444Z,0.11
2022-11-14T09:30:34.452Z,0.11
2022-11-14T09:31:34.416Z,0.14
2022-11-14T09:32:34.457Z,0.14
2022-11-14T09:33:34.408Z,0.14
2022-11-14T09:34:34.417Z,0.16
2022-11-14T09:35:34.378Z,0.16
2022-11-14T09:36:34.415Z,0.16
2022-11-14T09:37:34.382Z,0.16
2022-11-14T09:38:38.492Z,0.15
2022-11-14T09:39:34.321Z,0.18
2022-11-14T09:40:34.323Z,0.18
2022-11-14T09:41:34.295Z,0.16
2022-11-14T09:42:34.288Z,0.15
2022-11-14T09:43:34.295Z,0.14
2022-11-14T09:44:34.283Z,0.13
2022-11-14T09:45:34.241Z,0.14
2022-11-14T09:46:34.243Z,0.14
2022-11-14T09:47:34.217Z,0.15
2022-11-14T09:48:34.246Z,0.15
2022-11-14T09:49:34.187Z,0.13
2022-11-14T09:50:34.190Z,0.15
2022-11-14T09:51:34.170Z,0.15
2022-11-14T09:52:34.178Z,0.14
2022-11-14T09:53:34.152Z,0.15
2022-11-14T09:54:34.165Z,0.16
2022-11-14T09:55:37.069Z,0.15
2022-11-14T09:56:34.114Z,0.15
2022-11-14T09:57:34.083Z,0.15
2022-11-14T09:58:34.086Z,0.16
2022-11-14T09:59:34.109Z,0.18
2022-11-14T10:00:34.065Z,0.19
2022-11-14T10:01:34.061Z,0.20
2022-11-14T10:02:34.041Z,0.20
2022-11-14T10:03:34.004Z,0.20
2022-11-14T10:04:34.005Z,0.18
2022-11-14T10:05:34.013Z,0.19
2022-11-14T10:06:33.978Z,0.19
2022-11-14T10:07:34.093Z,0.20
2022-11-14T10:08:33.966Z,0.20
2022-11-14T10:09:33.934Z,0.20
2022-11-14T10:10:38.530Z,0.18
2022-11-14T10:11:33.915Z,0.16
2022-11-14T10:12:33.902Z,0.15
2022-11-14T10:13:33.882Z,0.14
2022-11-14T10:14:33.888Z,0.13
2022-11-14T10:15:34.224Z,0.13
2022-11-14T10:16:33.871Z,0.13
2022-11-14T10:17:33.830Z,0.14
2022-11-14T10:18:33.853Z,0.15
2022-11-14T10:19:36.459Z,0.18
2022-11-14T10:20:33.807Z,0.20
2022-11-14T10:21:33.796Z,0.23
2022-11-14T10:22:33.771Z,0.24
2022-11-14T10:23:33.811Z,0.22
2022-11-14T10:24:33.755Z,0.23
2022-11-14T10:25:33.721Z,0.23
2022-11-14T10:26:33.716Z,0.29
2022-11-14T10:27:33.720Z,0.25
2022-11-14T10:28:33.689Z,0.24
2022-11-14T10:29:33.668Z,0.27
2022-11-14T10:30:33.677Z,0.25
2022-11-14T10:31:33.639Z,0.25
2022-11-14T10:32:33.673Z,0.25
2022-11-14T10:33:33.621Z,0.29
2022-11-14T10:34:33.612Z,0.28
2022-11-14T10:35:35.251Z,0.29
2022-11-14T10:36:33.608Z,0.28
2022-11-14T10:37:33.556Z,0.24
2022-11-14T10:38:33.771Z,0.20
2022-11-14T10:39:33.562Z,0.22
2022-11-14T10:40:33.517Z,0.20
2022-11-14T10:41:55.517Z,0.20
2022-11-14T10:42:33.509Z,0.20
2022-11-14T10:43:33.521Z,0.20
2022-11-14T10:44:33.476Z,0.20
2022-11-14T10:45:33.475Z,0.20
2022-11-14T10:46:33.456Z,0.33
2022-11-14T10:47:33.450Z,0.28
2022-11-14T10:48:33.731Z,0.25
2022-11-14T10:49:33.427Z,0.20
2022-11-14T10:50:33.393Z,0.20
2022-11-14T10:51:33.392Z,0.18
2022-11-14T10:52:33.374Z,0.19
2022-11-14T10:53:33.361Z,0.22
2022-11-14T10:54:33.366Z,0.22
2022-11-14T10:56:33.312Z,0.28
2022-11-14T10:57:33.310Z,0.22
2022-11-14T10:58:46.735Z,0.19
2022-11-14T10:59:33.325Z,0.19
2022-11-14T11:00:33.276Z,0.19
2022-11-14T11:01:33.396Z,0.20
2022-11-14T11:02:36.300Z,0.16
2022-11-14T11:03:33.439Z,0.15
2022-11-14T11:04:33.224Z,0.15
2022-11-14T11:05:33.208Z,0.19
2022-11-14T11:06:33.185Z,0.19
2022-11-14T11:07:33.280Z,0.25
2022-11-14T11:08:43.291Z,0.28
2022-11-14T11:09:33.262Z,0.25
2022-11-14T11:10:33.148Z,0.23
2022-11-14T11:11:33.169Z,0.23
2022-11-14T11:12:33.131Z,0.27
2022-11-14T11:13:33.171Z,0.23
2022-11-14T11:14:33.089Z,0.22
2022-11-14T11:15:33.083Z,0.22
2022-11-14T11:16:33.081Z,0.25
2022-11-14T11:17:38.662Z,0.23
2022-11-14T11:18:33.387Z,0.19
2022-11-14T11:19:33.024Z,0.16
2022-11-14T11:20:33.011Z,0.15
2022-11-14T11:21:33.118Z,0.15
2022-11-14T11:22:32.969Z,0.16
2022-11-14T11:23:32.975Z,0.15
2022-11-14T11:24:32.968Z,0.15
2022-11-14T11:25:32.943Z,0.15
2022-11-14T11:26:32.940Z,0.15
2022-11-14T11:27:32.951Z,0.15
2022-11-14T11:28:33.146Z,0.16
2022-11-14T11:29:32.893Z,0.16
2022-11-14T11:30:32.876Z,0.16
2022-11-14T11:31:32.868Z,0.19
2022-11-14T11:32:32.895Z,0.18
2022-11-14T11:33:33.279Z,0.18
2022-11-14T11:34:32.809Z,0.22
2022-11-14T11:35:32.811Z,0.28
2022-11-14T11:36:32.802Z,0.20
2022-11-14T11:37:32.815Z,0.22
2022-11-14T11:38:33.192Z,0.24
2022-11-14T11:39:32.755Z,0.19
2022-11-14T11:40:32.748Z,0.20
2022-11-14T11:42:06.152Z,0.20
2022-11-14T11:43:16.745Z,0.25
2022-11-14T11:43:39.239Z,0.29
2022-11-14T11:44:32.679Z,0.28
2022-11-14T11:45:32.680Z,0.20
2022-11-14T11:46:32.673Z,0.22
2022-11-14T11:47:32.690Z,0.22
2022-11-14T11:48:32.627Z,0.20
2022-11-14T11:49:32.638Z,0.24
2022-11-14T11:50:32.605Z,0.27
2022-11-14T11:51:32.605Z,0.24
2022-11-14T11:52:32.628Z,0.23
2022-11-14T11:53:32.939Z,0.19
2022-11-14T11:54:32.548Z,0.18
2022-11-14T11:55:32.548Z,0.16
2022-11-14T11:56:32.546Z,0.18
2022-11-14T11:57:32.578Z,0.18
2022-11-14T11:58:32.507Z,0.19
2022-11-14T11:59:32.501Z,0.22
2022-11-14T12:00:32.486Z,0.16
2022-11-14T12:01:32.476Z,0.18
2022-11-14T12:02:32.586Z,0.19
2022-11-14T12:03:32.666Z,0.18
2022-11-14T12:04:32.437Z,0.18
2022-11-14T12:05:32.427Z,0.19
2022-11-14T12:06:32.395Z,0.16
2022-11-14T12:07:32.442Z,0.14
2022-11-14T12:08:32.407Z,0.14
2022-11-14T12:10:03.195Z,0.18
2022-11-14T12:10:32.347Z,0.18
2022-11-14T12:11:32.349Z,0.19
2022-11-14T12:12:32.310Z,0.18
2022-11-14T12:13:32.769Z,0.15
2022-11-14T12:14:32.314Z,0.15
2022-11-14T12:15:32.308Z,0.18
2022-11-14T12:16:32.259Z,0.18
2022-11-14T12:17:32.267Z,0.15
2022-11-14T12:18:32.231Z,0.15
2022-11-14T12:19:32.273Z,0.15
2022-11-14T12:20:32.211Z,0.15
2022-11-14T12:21:32.221Z,0.13
2022-11-14T12:22:32.196Z,0.16
2022-11-14T12:23:32.557Z,0.15
2022-11-14T12:24:32.201Z,0.14
2022-11-14T12:25:32.156Z,0.15
2022-11-14T12:26:32.138Z,0.16
2022-11-14T12:27:32.185Z,0.14
2022-11-14T12:28:32.099Z,0.19
2022-11-14T12:29:32.108Z,0.30
2022-11-14T12:30:32.117Z,0.39
2022-11-14T12:31:32.071Z,0.35
2022-11-14T12:32:32.053Z,0.35
2022-11-14T12:33:32.344Z,0.35
2022-11-14T12:34:32.078Z,0.34
2022-11-14T12:35:32.158Z,0.33
2022-11-14T12:36:32.020Z,0.44
2022-11-14T12:37:32.026Z,0.56
2022-11-14T12:38:31.970Z,0.59
2022-11-14T12:39:31.978Z,0.56
2022-11-14T12:40:31.965Z,0.56
2022-11-14T12:41:31.972Z,0.62
2022-11-14T12:42:31.933Z,0.58
2022-11-14T12:43:36.436Z,0.56
2022-11-14T12:44:31.976Z,0.56
2022-11-14T12:45:31.892Z,0.52
2022-11-14T12:46:31.966Z,0.41
2022-11-14T12:47:31.868Z,0.41
2022-11-14T12:48:31.840Z,0.38
2022-11-14T12:49:35.348Z,0.39
2022-11-14T12:50:31.846Z,0.43
2022-11-14T12:51:31.944Z,0.41
2022-11-14T12:52:31.803Z,0.42
2022-11-14T12:53:32.102Z,0.47
2022-11-14T12:54:31.752Z,0.51
2022-11-14T12:55:31.771Z,0.51
2022-11-14T12:56:31.777Z,0.43
2022-11-14T12:57:31.740Z,0.43
2022-11-14T12:58:31.707Z,0.47
2022-11-14T12:59:31.736Z,0.46
2022-11-14T13:00:31.768Z,0.42
2022-11-14T13:01:31.857Z,0.46
2022-11-14T13:02:31.728Z,0.43
2022-11-14T13:03:32.124Z,0.48
2022-11-14T13:04:31.627Z,0.48
2022-11-14T13:05:31.653Z,0.51
2022-11-14T13:06:31.610Z,0.52
2022-11-14T13:07:34.539Z,0.53
2022-11-14T13:08:31.610Z,0.57
2022-11-14T13:09:31.572Z,0.63
2022-11-14T13:10:31.587Z,0.62
2022-11-14T13:11:31.550Z,0.59
2022-11-14T13:12:31.566Z,0.58
2022-11-14T13:13:31.881Z,0.61
2022-11-14T13:14:31.504Z,0.66
2022-11-14T13:15:31.497Z,0.58
2022-11-14T13:16:31.478Z,0.42
2022-11-14T13:17:31.590Z,0.39
2022-11-14T13:18:31.478Z,0.38
2022-11-14T13:19:31.454Z,0.29
2022-11-14T13:20:31.446Z,0.28